aviador You're here:

KMCN Decoded Metar

MACON in GA, USA
Report Time2017-09-22 23:53:00
UTC Time2017-09-23 00:22:31
Flight Rules vfr VFR
Wind360° at 03 kt
W.Decomp.*RWY 05: 2.0 kt HW 2.2 kt LCW
RWY 31: 1.8 kt HW 2.4 kt RCW
Visibility9999 m
Phenomena:N/A
Clouds:N/A
Expected CloudBase > 800 ft AGL from Temp-Dew spread
CeilingNone
Temp23°C (ISA +9)
Dew Point21°C (89% RH)
QNH1016 hPa
Density Alt1,598 ft
Elevation358 ft
Report Wrong Elevation
Raw Report
METAR KMCN 222353Z 36003KT 10SM CLR 23/21 A2999 RMK AO2 TSE2255 SLP150
T02330211 10328 20233 51009=

Extra information for KMCN:More info

Metar Taf Metar & Taf Last 4 Metars F.Rules Stats Wind Profile Meteogram Temp Stats Airport Information Weather charts Add Link Nearby VenuesMetar ALERT Operation Metar Decoded Social comments

AIRNAV info for KMCN